Time;durP1;ratioP1;P1;durP2;ratioP2;P2;SDS_P1;SDS_P2;PMS_P1;PMS_P2;Temp;Humidity;BMP_temperature;BMP_pressure;BME280_temperature;BME280_humidity;BME280_pressure;Samples;Min_cycle;Max_cycle;Signal;HPM_P1;HPM_P2
2021/11/08 00:01:19;;;;;;;;;0.75;0.75;;;;;8.77;69.80;101989.69;5085634;28;45342;-79
2021/11/08 00:03:47;;;;;;;;;2.00;0.75;;;;;8.78;69.24;101988.84;5085168;28;45399;-78
2021/11/08 00:06:15;;;;;;;;;1.50;0.50;;;;;8.76;69.69;101979.25;5085118;28;45165;-79
2021/11/08 00:08:41;;;;;;;;;2.00;2.00;;;;;8.65;69.42;101968.47;5067156;28;45661;-79
2021/11/08 00:11:07;;;;;;;;;4.00;3.25;;;;;8.55;69.69;101956.88;5085418;28;45349;-79
2021/11/08 00:13:33;;;;;;;;;2.50;1.00;;;;;8.52;69.97;101951.53;5085162;28;45318;-79
2021/11/08 00:21:08;;;;;;;;;2.00;2.00;;;;;8.48;69.41;101935.84;5085109;28;45437;-80
2021/11/08 00:23:34;;;;;;;;;1.75;1.25;;;;;8.64;70.10;101964.09;5066555;28;47051;-79
2021/11/08 00:26:02;;;;;;;;;1.00;1.00;;;;;8.63;69.16;101976.19;5084868;28;45374;-79
2021/11/08 00:28:28;;;;;;;;;2.00;1.00;;;;;8.56;69.65;101967.31;5085172;28;45185;-79
2021/11/08 00:30:54;;;;;;;;;2.75;1.75;;;;;8.63;69.91;101968.41;5083558;28;45172;-80
2021/11/08 00:33:21;;;;;;;;;2.00;2.00;;;;;8.71;69.51;101979.06;5066108;28;47167;-80
2021/11/08 00:35:55;;;;;;;;;1.00;1.00;;;;;8.58;69.79;101968.22;5084652;28;45369;-79
2021/11/08 00:38:22;;;;;;;;;1.00;1.00;;;;;8.69;69.66;101984.22;5084914;28;45263;-80
2021/11/08 00:40:48;;;;;;;;;0.25;0.25;;;;;8.54;70.07;101945.59;5083575;28;45403;-80
2021/11/08 00:43:15;;;;;;;;;0.75;0.75;;;;;8.69;69.76;101968.63;5066322;28;47453;-80
2021/11/08 00:45:41;;;;;;;;;3.00;3.00;;;;;8.57;69.93;101966.47;5084462;28;45373;-80
2021/11/08 00:48:08;;;;;;;;;3.00;0.75;;;;;8.58;69.96;101967.38;5084780;28;45171;-79
2021/11/08 00:50:34;;;;;;;;;2.00;2.00;;;;;8.55;69.76;101962.06;5084764;28;45239;-79
2021/11/08 00:53:00;;;;;;;;;1.00;1.00;;;;;8.63;69.78;101972.72;5084381;28;46141;-80
2021/11/08 00:55:27;;;;;;;;;1.00;1.00;;;;;8.53;70.07;101969.75;5084501;28;45234;-80
2021/11/08 00:57:56;;;;;;;;;0.50;0.50;;;;;8.64;69.70;101985.78;5083585;28;45267;-79
2021/11/08 01:00:26;;;;;;;;;2.50;0.00;;;;;8.60;69.97;101965.69;5084575;28;45276;-79
2021/11/08 01:02:51;;;;;;;;;2.00;2.00;;;;;8.67;70.01;101966.81;5084367;28;45319;-79
2021/11/08 01:05:18;;;;;;;;;1.25;1.25;;;;;8.64;70.07;101969.28;5084225;28;45304;-79
2021/11/08 01:07:44;;;;;;;;;1.00;1.00;;;;;8.57;69.62;101966.47;5084535;28;45295;-79
2021/11/08 01:10:13;;;;;;;;;1.00;1.00;;;;;8.73;69.47;101993.00;5084451;28;45438;-79
2021/11/08 01:12:39;;;;;;;;;2.00;1.00;;;;;8.73;69.82;101995.59;5084161;28;45249;-79
2021/11/08 01:15:06;;;;;;;;;1.50;1.00;;;;;8.63;69.14;101983.97;5084137;28;45290;-79
2021/11/08 01:17:33;;;;;;;;;2.75;1.00;;;;;8.60;69.33;101987.34;5084211;28;45388;-80
2021/11/08 01:19:58;;;;;;;;;1.00;1.00;;;;;8.51;69.44;101984.38;5084175;28;45416;-80
2021/11/08 01:22:24;;;;;;;;;1.00;1.00;;;;;8.47;69.76;101982.50;5065550;28;46799;-80
2021/11/08 01:24:53;;;;;;;;;1.00;1.00;;;;;8.42;69.91;101963.28;5065675;28;45742;-79
2021/11/08 01:27:21;;;;;;;;;0.00;0.00;;;;;8.31;69.72;101955.09;5083981;28;45328;-79
2021/11/08 01:29:46;;;;;;;;;0.50;0.50;;;;;8.36;70.10;101962.22;5084058;28;45273;-79
2021/11/08 01:32:12;;;;;;;;;1.75;0.00;;;;;8.37;69.89;101971.75;5083218;28;46236;-79
2021/11/08 01:34:37;;;;;;;;;0.00;0.00;;;;;8.40;69.89;101970.13;5083756;28;45303;-79
2021/11/08 01:37:04;;;;;;;;;2.50;1.00;;;;;8.23;69.82;101940.13;5083603;28;45367;-79
2021/11/08 01:39:34;;;;;;;;;1.00;1.00;;;;;8.37;70.14;101961.38;5084017;28;45615;-79
2021/11/08 01:42:03;;;;;;;;;1.00;1.00;;;;;8.46;70.12;101979.00;5083317;28;46052;-79
2021/11/08 01:44:29;;;;;;;;;1.25;1.00;;;;;8.21;69.85;101935.72;5083417;28;45362;-79
2021/11/08 01:46:59;;;;;;;;;1.00;1.00;;;;;8.28;70.28;101957.56;5083518;28;45330;-79
2021/11/08 01:49:25;;;;;;;;;1.00;0.75;;;;;8.25;70.49;101955.75;5065815;28;45246;-79
2021/11/08 01:51:52;;;;;;;;;1.50;1.50;;;;;8.33;70.40;101969.88;5082993;28;46185;-79
2021/11/08 01:54:18;;;;;;;;;1.00;0.25;;;;;8.29;70.29;101961.91;5083324;28;45490;-79
2021/11/08 01:56:45;;;;;;;;;2.25;1.00;;;;;8.32;70.47;101960.34;5083701;28;45322;-79
2021/11/08 01:59:11;;;;;;;;;3.00;1.00;;;;;8.33;70.17;101962.09;5083678;28;45541;-79
2021/11/08 02:01:37;;;;;;;;;1.00;0.00;;;;;8.38;70.52;101959.69;5083399;28;45290;-79
2021/11/08 02:04:03;;;;;;;;;3.25;1.00;;;;;8.39;70.18;101965.75;5083554;28;45224;-79
2021/11/08 02:06:28;;;;;;;;;0.75;0.75;;;;;8.21;70.39;101939.16;5083514;28;45210;-79
2021/11/08 02:08:54;;;;;;;;;2.00;0.00;;;;;8.41;70.24;101964.09;5083636;28;45166;-79
2021/11/08 02:11:23;;;;;;;;;0.75;0.75;;;;;8.28;70.23;101936.81;5065300;28;47809;-79
2021/11/08 02:13:50;;;;;;;;;1.75;1.75;;;;;8.29;70.39;101935.97;5083288;28;45283;-79
2021/11/08 02:16:16;;;;;;;;;2.00;0.00;;;;;8.39;70.28;101955.38;5083517;28;45264;-79
2021/11/08 02:18:43;;;;;;;;;0.75;0.75;;;;;8.30;70.46;101936.03;5083679;28;45445;-79
2021/11/08 02:21:11;;;;;;;;;1.25;0.00;;;;;8.42;70.77;101958.97;5082864;28;45245;-79
2021/11/08 02:23:38;;;;;;;;;0.00;0.00;;;;;8.40;70.13;101957.16;5083290;28;45287;-79
2021/11/08 02:26:08;;;;;;;;;0.00;0.00;;;;;8.42;70.63;101958.97;5083236;28;45335;-79
2021/11/08 02:28:33;;;;;;;;;0.00;0.00;;;;;8.39;70.12;101960.56;5083519;28;45214;-79
2021/11/08 02:30:59;;;;;;;;;0.00;0.00;;;;;8.40;70.26;101967.53;5082699;28;45165;-79
2021/11/08 02:33:26;;;;;;;;;0.00;0.00;;;;;8.36;70.12;101956.13;5082751;28;45275;-79
2021/11/08 02:35:52;;;;;;;;;0.00;0.00;;;;;8.34;70.27;101953.50;5082682;28;45424;-79
2021/11/08 02:38:28;;;;;;;;;1.00;1.00;;;;;8.24;70.23;101930.66;5083255;28;45461;-79
2021/11/08 02:40:55;;;;;;;;;0.75;0.50;;;;;8.35;70.16;101944.00;5082693;28;46431;-79
2021/11/08 02:43:24;;;;;;;;;0.75;0.00;;;;;8.26;70.08;101930.66;5082842;28;45291;-79
2021/11/08 02:45:56;;;;;;;;;1.00;1.00;;;;;8.35;70.49;101946.59;5082855;28;45276;-79
2021/11/08 02:48:22;;;;;;;;;1.25;1.00;;;;;8.32;70.52;101955.16;5083003;28;45221;-78
2021/11/08 02:50:54;;;;;;;;;2.00;1.50;;;;;8.24;70.41;101946.22;5080971;28;47405;-79
2021/11/08 02:53:22;;;;;;;;;0.50;0.50;;;;;8.22;70.35;101953.03;5065648;28;45378;-79
2021/11/08 02:55:48;;;;;;;;;1.00;1.00;;;;;8.26;70.50;101957.50;5082942;28;45295;-79
2021/11/08 02:58:13;;;;;;;;;0.00;0.00;;;;;8.09;70.40;101920.56;5082942;28;45357;-79
2021/11/08 03:00:39;;;;;;;;;1.75;1.75;;;;;8.29;70.55;101959.31;5082505;28;45263;-79
2021/11/08 03:03:05;;;;;;;;;1.75;0.50;;;;;8.24;70.13;101951.41;5082676;28;45252;-79
2021/11/08 03:05:32;;;;;;;;;1.00;0.25;;;;;8.26;70.78;101959.22;5082672;28;45237;-78
2021/11/08 03:07:58;;;;;;;;;0.00;0.00;;;;;8.15;70.51;101946.72;5083134;28;45359;-79
2021/11/08 03:10:29;;;;;;;;;2.00;1.00;;;;;8.15;70.80;101945.84;5080994;28;47031;-79
2021/11/08 03:12:57;;;;;;;;;0.25;0.25;;;;;8.21;70.34;101957.31;5082443;28;45161;-79
2021/11/08 03:15:35;;;;;;;;;1.00;1.00;;;;;8.20;70.89;101960.75;5082562;28;45307;-79
2021/11/08 03:18:05;;;;;;;;;1.75;1.00;;;;;8.05;70.60;101952.38;5082841;28;45750;-79
2021/11/08 03:20:31;;;;;;;;;0.00;0.00;;;;;7.95;71.21;101938.19;5083239;28;46990;-79
2021/11/08 03:23:01;;;;;;;;;0.00;0.00;;;;;8.01;70.71;101963.47;5084697;28;45407;-80
2021/11/08 03:27:59;;;;;;;;;1.00;1.00;;;;;7.75;71.18;101945.19;5086312;28;45318;-79
2021/11/08 03:30:32;;;;;;;;;0.00;0.00;;;;;7.81;71.14;101955.81;5067431;28;46987;-79
2021/11/08 03:32:58;;;;;;;;;4.00;1.25;;;;;7.56;71.24;101913.31;5085530;28;45338;-79
2021/11/08 03:35:25;;;;;;;;;2.00;0.75;;;;;7.84;71.49;101963.69;5085842;28;45322;-80
2021/11/08 03:37:52;;;;;;;;;2.75;2.00;;;;;7.74;71.39;101962.44;5084880;28;45441;-79
2021/11/08 03:40:23;;;;;;;;;0.00;0.00;;;;;7.75;71.54;101963.31;5085651;28;45265;-80
2021/11/08 03:42:51;;;;;;;;;1.00;1.00;;;;;7.73;71.61;101976.22;5085876;28;45326;-79
2021/11/08 03:45:18;;;;;;;;;1.00;1.00;;;;;7.68;71.95;101972.53;5085844;28;45229;-80
2021/11/08 03:47:44;;;;;;;;;1.00;0.25;;;;;7.63;71.50;101963.72;5085920;28;45295;-80
2021/11/08 03:50:10;;;;;;;;;0.00;0.00;;;;;7.59;71.92;101976.53;5085415;28;45286;-79
2021/11/08 03:52:37;;;;;;;;;1.00;1.00;;;;;7.60;71.69;101978.31;5085643;28;45290;-79
2021/11/08 03:55:05;;;;;;;;;0.00;0.00;;;;;7.47;71.69;101961.38;5067268;28;45351;-80
2021/11/08 03:57:30;;;;;;;;;1.00;1.00;;;;;7.42;71.68;101969.78;5085984;28;45504;-80
2021/11/08 03:59:56;;;;;;;;;1.00;1.00;;;;;7.32;71.86;101956.44;5085051;28;46149;-79
2021/11/08 04:02:21;;;;;;;;;1.00;1.00;;;;;7.15;72.25;101942.78;5067311;28;45320;-79
2021/11/08 04:04:47;;;;;;;;;0.75;0.75;;;;;7.08;72.43;101920.91;5085182;28;45307;-79
2021/11/08 04:07:13;;;;;;;;;0.50;0.50;;;;;7.32;71.96;101958.16;5085954;28;45176;-79
2021/11/08 04:09:39;;;;;;;;;0.50;0.50;;;;;7.33;72.02;101962.50;5085244;28;46080;-79
2021/11/08 04:12:05;;;;;;;;;1.25;1.00;;;;;7.20;72.50;101937.81;5085343;28;45306;-79
2021/11/08 04:14:30;;;;;;;;;1.00;1.00;;;;;7.18;72.44;101921.31;5085366;28;45473;-79
2021/11/08 04:16:56;;;;;;;;;1.00;1.00;;;;;7.30;71.82;101939.06;5085428;28;45443;-79
2021/11/08 04:19:27;;;;;;;;;3.00;1.50;;;;;7.32;72.03;101945.22;5084978;28;45599;-79
2021/11/08 04:21:53;;;;;;;;;1.00;1.00;;;;;7.35;71.57;101946.19;5084490;28;46186;-80
2021/11/08 04:24:19;;;;;;;;;1.00;1.00;;;;;7.46;71.94;101963.91;5084768;28;45357;-80
2021/11/08 04:26:44;;;;;;;;;0.00;0.00;;;;;7.35;71.77;101951.38;5085540;28;45503;-79
2021/11/08 04:29:10;;;;;;;;;0.00;0.00;;;;;7.28;71.44;101938.09;5085149;28;45231;-80
2021/11/08 04:31:37;;;;;;;;;0.25;0.25;;;;;7.25;71.63;101931.09;5083699;28;45438;-80
2021/11/08 04:34:17;;;;;;;;;1.75;1.75;;;;;7.35;71.63;101950.47;5084481;28;45347;-79
2021/11/08 04:50:18;;;;;;;;;4.00;2.00;;;;;7.81;71.49;101974.81;5084262;28;45324;-79
2021/11/08 05:32:17;;;;;;;;;1.00;1.00;;;;;7.75;71.21;101982.34;5083140;28;45265;-79
2021/11/08 05:34:42;;;;;;;;;0.75;0.75;;;;;7.71;70.75;101972.66;5083312;28;45274;-80
2021/11/08 05:37:08;;;;;;;;;1.00;1.00;;;;;7.71;71.23;101973.56;5082425;28;45240;-79
2021/11/08 05:39:36;;;;;;;;;1.00;1.00;;;;;7.61;71.34;101971.41;5084049;28;45256;-79
2021/11/08 05:42:03;;;;;;;;;2.25;0.75;;;;;7.70;71.57;101986.47;5083646;28;45337;-79
2021/11/08 05:44:29;;;;;;;;;0.00;0.00;;;;;7.59;71.28;101973.94;5064744;28;45336;-79
2021/11/08 05:46:55;;;;;;;;;1.75;1.25;;;;;7.63;71.12;101974.97;5083097;28;45382;-79
2021/11/08 05:49:20;;;;;;;;;1.50;0.50;;;;;7.65;70.87;101975.00;5083261;28;45525;-79
2021/11/08 05:51:45;;;;;;;;;1.75;1.00;;;;;7.85;70.82;102004.34;5082314;28;45346;-79
2021/11/08 05:54:11;;;;;;;;;1.00;1.00;;;;;7.87;70.80;101992.31;5082908;28;45360;-79
2021/11/08 05:56:54;;;;;;;;;0.00;0.00;;;;;7.88;71.35;101988.91;5065163;28;45329;-79
2021/11/08 05:59:44;;;;;;;;;3.00;1.75;;;;;7.88;71.56;101986.31;5083278;28;45441;-79
2021/11/08 06:50:59;;;;;;;;;1.00;1.00;;;;;7.64;71.11;102035.44;5083679;28;45378;-78
2021/11/08 06:53:25;;;;;;;;;2.00;1.00;;;;;7.62;71.56;102058.72;5082141;28;45210;-79
2021/11/08 06:55:53;;;;;;;;;1.75;1.75;;;;;7.47;71.30;102040.81;5079451;28;48518;-79
2021/11/08 06:58:22;;;;;;;;;1.00;1.00;;;;;7.61;71.72;102059.53;5081322;28;45359;-78
2021/11/08 07:00:49;;;;;;;;;2.00;2.00;;;;;7.51;71.64;102040.13;5081573;28;45250;-78
2021/11/08 07:03:15;;;;;;;;;2.00;0.00;;;;;7.62;71.74;102058.72;5081607;28;45211;-78
2021/11/08 07:05:41;;;;;;;;;1.25;1.25;;;;;7.44;71.57;102041.56;5081651;28;46053;-79
2021/11/08 07:08:07;;;;;;;;;1.25;1.25;;;;;7.52;71.54;102060.03;5081746;28;45200;-79
2021/11/08 07:10:33;;;;;;;;;4.00;1.00;;;;;7.52;72.13;102067.81;5082046;28;45318;-78
2021/11/08 07:12:59;;;;;;;;;1.00;1.00;;;;;7.60;72.19;102069.00;5081738;28;45303;-79
2021/11/08 07:15:25;;;;;;;;;1.00;1.00;;;;;7.60;71.74;102063.81;5081690;28;45316;-79
2021/11/08 07:17:52;;;;;;;;;1.00;1.00;;;;;7.73;71.72;102066.94;5081891;28;45283;-79
2021/11/08 07:20:21;;;;;;;;;1.50;1.00;;;;;7.76;71.89;102067.09;5063270;28;45253;-79
2021/11/08 07:22:48;;;;;;;;;0.00;0.00;;;;;7.69;71.85;102058.16;5081549;28;45441;-79
2021/11/08 07:25:14;;;;;;;;;1.00;1.00;;;;;7.60;71.69;102050.88;5081393;28;45369;-80
2021/11/08 07:27:40;;;;;;;;;1.00;0.75;;;;;7.56;71.36;102048.06;5063452;28;45398;-79
2021/11/08 07:30:07;;;;;;;;;2.25;2.25;;;;;7.73;71.38;102066.94;5083910;28;45322;-79
2021/11/08 07:32:33;;;;;;;;;0.75;0.75;;;;;7.58;71.14;102051.63;5083118;28;45452;-80
2021/11/08 07:34:59;;;;;;;;;1.00;1.00;;;;;7.72;71.68;102083.34;5082419;28;45139;-80
2021/11/08 07:37:24;;;;;;;;;4.25;2.50;;;;;7.54;71.37;102052.31;5081694;28;45228;-81
2021/11/08 07:39:50;;;;;;;;;6.75;2.75;;;;;7.76;71.48;102087.81;5079838;28;45343;-80
2021/11/08 07:42:18;;;;;;;;;3.75;2.50;;;;;7.73;71.42;102075.63;5063656;28;45267;-79
2021/11/08 07:44:43;;;;;;;;;1.00;1.00;;;;;7.86;71.62;102091.66;5080825;28;45397;-78
2021/11/08 07:47:09;;;;;;;;;1.00;1.00;;;;;7.91;71.12;102097.94;5081142;28;45337;-80
2021/11/08 07:49:34;;;;;;;;;2.25;2.25;;;;;7.95;71.63;102094.66;5082249;28;45289;-78
2021/11/08 07:52:00;;;;;;;;;1.75;1.00;;;;;7.74;71.18;102053.16;5081728;28;45418;-80
2021/11/08 07:54:29;;;;;;;;;1.00;1.00;;;;;8.06;71.32;102100.25;5081257;28;45417;-81
2021/11/08 07:56:55;;;;;;;;;1.25;1.25;;;;;8.12;71.05;102099.66;5081097;28;45242;-80
2021/11/08 07:59:20;;;;;;;;;1.50;1.50;;;;;8.02;71.25;102080.22;5080911;28;45341;-80
2021/11/08 08:01:48;;;;;;;;;2.50;2.00;;;;;8.21;71.16;102105.19;5080616;28;45208;-80
2021/11/08 08:04:14;;;;;;;;;4.75;2.50;;;;;8.15;70.75;102096.28;5079835;28;46168;-80
2021/11/08 08:06:41;;;;;;;;;3.00;3.00;;;;;7.98;71.02;102081.81;5081422;28;45318;-80
2021/11/08 08:09:06;;;;;;;;;1.50;1.50;;;;;8.10;70.81;102099.59;5082830;28;45282;-80
2021/11/08 08:11:32;;;;;;;;;1.00;1.00;;;;;8.07;70.78;102094.28;5084240;28;45277;-80
2021/11/08 08:13:58;;;;;;;;;1.00;1.00;;;;;8.17;70.58;102099.81;5065401;28;48032;-79
2021/11/08 08:16:23;;;;;;;;;1.00;1.00;;;;;8.30;70.95;102106.41;5084480;28;45222;-80
2021/11/08 08:18:50;;;;;;;;;1.75;1.75;;;;;8.22;70.63;102078.44;5066548;28;45194;-80
2021/11/08 08:21:17;;;;;;;;;1.50;0.00;;;;;8.38;70.57;102099.81;5084524;28;45265;-80
2021/11/08 08:23:43;;;;;;;;;2.00;1.00;;;;;8.55;70.39;102118.66;5083787;28;46254;-80
2021/11/08 08:26:10;;;;;;;;;1.00;1.00;;;;;8.45;70.11;102101.81;5084295;28;45322;-80
2021/11/08 08:28:37;;;;;;;;;1.00;1.00;;;;;8.59;70.04;102117.97;5066058;28;45367;-80
2021/11/08 08:31:02;;;;;;;;;3.50;1.00;;;;;8.52;70.19;102082.19;5084944;28;45281;-80
2021/11/08 08:33:28;;;;;;;;;1.50;1.50;;;;;8.51;70.14;102075.22;5083847;28;45421;-79
2021/11/08 08:35:54;;;;;;;;;1.75;1.75;;;;;8.52;69.74;102066.63;5083000;28;45323;-80
2021/11/08 08:38:22;;;;;;;;;1.25;1.00;;;;;8.86;70.00;102116.38;5065933;28;45213;-80
2021/11/08 08:40:50;;;;;;;;;2.25;2.25;;;;;8.75;69.36;102082.22;5084740;28;45536;-80
2021/11/08 08:43:17;;;;;;;;;3.75;1.75;;;;;8.95;69.18;102110.66;5082798;28;46456;-80
2021/11/08 08:45:43;;;;;;;;;0.00;0.00;;;;;8.90;69.46;102092.28;5083677;28;45255;-79
2021/11/08 08:48:11;;;;;;;;;2.00;2.00;;;;;9.20;69.42;102119.34;5084399;28;45307;-80
2021/11/08 08:50:38;;;;;;;;;1.00;1.00;;;;;9.24;69.21;102123.81;5084316;28;45161;-80
2021/11/08 08:53:04;;;;;;;;;2.00;2.00;;;;;9.26;69.14;102124.78;5065260;28;47757;-78
2021/11/08 08:55:30;;;;;;;;;1.00;1.00;;;;;9.29;68.93;102126.59;5083516;28;45307;-79
2021/11/08 08:57:56;;;;;;;;;3.00;1.25;;;;;9.30;68.66;102134.44;5084007;28;45258;-79
2021/11/08 09:00:22;;;;;;;;;1.00;0.00;;;;;9.32;68.55;102127.59;5084377;28;45499;-79
2021/11/08 09:02:50;;;;;;;;;0.75;0.75;;;;;9.37;68.77;102131.22;5083807;28;45263;-80
2021/11/08 09:05:16;;;;;;;;;3.25;3.00;;;;;9.41;68.64;102131.34;5083711;28;45238;-81
2021/11/08 09:07:42;;;;;;;;;2.00;1.00;;;;;9.13;68.22;102105.25;5082663;28;45315;-79
2021/11/08 09:10:08;;;;;;;;;1.75;1.50;;;;;9.28;68.70;102130.03;5083877;28;45292;-79
2021/11/08 09:12:33;;;;;;;;;1.50;1.25;;;;;9.29;68.60;102135.28;5082337;28;47036;-79
2021/11/08 09:14:59;;;;;;;;;0.00;0.00;;;;;9.31;68.33;102131.00;5083499;28;45371;-79
2021/11/08 09:17:24;;;;;;;;;2.00;2.00;;;;;9.46;68.25;102133.28;5082067;28;45316;-78
2021/11/08 09:19:50;;;;;;;;;2.00;2.00;;;;;9.52;68.29;102132.59;5082686;28;45384;-79
2021/11/08 09:22:15;;;;;;;;;3.00;3.00;;;;;9.55;68.17;102130.13;5083503;28;45248;-79
2021/11/08 09:24:41;;;;;;;;;4.50;2.75;;;;;9.67;68.20;102137.47;5083327;28;45368;-79
2021/11/08 09:27:07;;;;;;;;;2.00;2.00;;;;;9.69;67.50;102134.91;5065470;28;45329;-79
2021/11/08 09:29:33;;;;;;;;;2.50;2.25;;;;;9.73;67.59;102127.28;5083930;28;45580;-79
2021/11/08 09:31:58;;;;;;;;;1.00;1.00;;;;;9.80;67.50;102119.69;5079691;28;45456;-79
2021/11/08 09:34:24;;;;;;;;;1.75;1.75;;;;;9.99;67.45;102134.22;5083088;28;45228;-79
2021/11/08 09:36:53;;;;;;;;;1.50;1.50;;;;;10.06;67.16;102141.38;5083749;28;45234;-79
2021/11/08 09:39:27;;;;;;;;;1.00;1.00;;;;;10.18;67.09;102130.50;5083727;28;45318;-79
2021/11/08 09:41:56;;;;;;;;;2.75;2.75;;;;;10.55;66.55;102138.63;5083341;28;47030;-79
2021/11/08 09:44:22;;;;;;;;;4.50;2.25;;;;;10.68;65.69;102141.59;5083395;28;45334;-79
2021/11/08 09:46:53;;;;;;;;;3.75;2.75;;;;;10.67;65.87;102126.81;5083219;28;45203;-79
2021/11/08 09:49:19;;;;;;;;;2.00;2.00;;;;;10.63;65.65;102137.13;5083153;28;45303;-79
2021/11/08 09:51:47;;;;;;;;;2.50;2.00;;;;;10.54;65.27;102117.75;5082297;28;46236;-79
2021/11/08 09:54:15;;;;;;;;;6.00;4.50;;;;;10.54;65.67;102097.81;5064612;28;45293;-79
2021/11/08 09:56:42;;;;;;;;;5.75;1.00;;;;;10.81;65.21;102129.84;5083176;28;45237;-79
2021/11/08 09:59:09;;;;;;;;;2.00;2.00;;;;;10.75;64.95;102114.94;5083472;28;45532;-79
2021/11/08 10:01:38;;;;;;;;;3.00;2.00;;;;;10.95;64.98;102132.84;5082959;28;46560;-79
2021/11/08 10:04:05;;;;;;;;;1.25;1.00;;;;;10.88;64.63;102118.78;5083198;28;45197;-79
2021/11/08 10:06:31;;;;;;;;;3.25;2.00;;;;;11.00;64.45;102116.50;5082625;28;45243;-79
2021/11/08 10:08:58;;;;;;;;;3.00;1.00;;;;;11.10;64.33;102117.69;5082462;28;45351;-79
2021/11/08 10:11:24;;;;;;;;;2.00;1.75;;;;;11.27;63.71;102127.69;5082342;28;45413;-79
2021/11/08 10:13:51;;;;;;;;;2.75;2.75;;;;;11.29;63.77;102126.00;5064102;28;45355;-79
2021/11/08 10:16:23;;;;;;;;;1.00;1.00;;;;;11.38;63.20;102125.38;5082831;28;45249;-81
2021/11/08 10:18:53;;;;;;;;;1.75;1.75;;;;;11.42;63.66;102118.53;5082258;28;45316;-80
2021/11/08 10:21:27;;;;;;;;;1.00;1.00;;;;;11.45;63.30;102106.44;5082004;28;45164;-80
2021/11/08 10:23:54;;;;;;;;;1.00;0.00;;;;;11.65;63.25;102124.38;5082217;28;45262;-78
2021/11/08 10:26:23;;;;;;;;;3.75;3.75;;;;;11.68;63.41;102116.63;5082677;28;45220;-79
2021/11/08 10:28:58;;;;;;;;;4.75;1.25;;;;;11.78;63.12;102115.13;5082338;28;45314;-80
2021/11/08 10:31:33;;;;;;;;;4.00;3.00;;;;;11.70;62.08;102093.19;5063481;28;46269;-80
2021/11/08 10:34:03;;;;;;;;;2.75;2.00;;;;;11.83;62.85;102094.38;5081998;28;45436;-80
2021/11/08 10:36:29;;;;;;;;;1.00;1.00;;;;;12.03;61.73;102118.34;5082360;28;45257;-80
2021/11/08 10:38:57;;;;;;;;;1.75;1.75;;;;;12.09;61.31;102121.16;5082781;28;45224;-79
2021/11/08 10:41:25;;;;;;;;;2.75;2.75;;;;;12.12;61.34;102117.72;5064531;28;47627;-79
2021/11/08 10:43:56;;;;;;;;;1.00;1.00;;;;;11.98;60.19;102122.59;5082098;28;45394;-79
2021/11/08 10:46:31;;;;;;;;;1.50;1.25;;;;;11.79;60.62;102117.78;5082238;28;45405;-79
2021/11/08 10:49:05;;;;;;;;;4.00;2.00;;;;;11.61;60.50;102089.47;5082827;28;45287;-79
2021/11/08 10:51:32;;;;;;;;;2.50;1.25;;;;;11.75;61.36;102104.63;5082113;28;46161;-79
2021/11/08 10:54:01;;;;;;;;;2.50;2.00;;;;;11.83;60.71;102116.16;5082156;28;45370;-79
2021/11/08 10:56:30;;;;;;;;;1.25;0.75;;;;;11.71;60.36;102087.13;5082669;28;45329;-78
2021/11/08 10:58:58;;;;;;;;;3.00;2.00;;;;;11.76;60.41;102085.53;5082776;28;45232;-79
2021/11/08 11:01:30;;;;;;;;;0.00;0.00;;;;;11.94;60.65;102108.56;5081670;28;46203;-80
2021/11/08 11:03:59;;;;;;;;;0.00;0.00;;;;;11.95;59.36;102097.31;5081687;28;45253;-79
2021/11/08 11:06:44;;;;;;;;;1.75;1.75;;;;;12.04;59.35;102096.66;5083061;28;45396;-80
2021/11/08 11:09:17;;;;;;;;;0.00;0.00;;;;;12.06;59.09;102112.34;5082555;28;45243;-79
2021/11/08 11:11:44;;;;;;;;;1.00;0.50;;;;;12.04;59.85;102105.34;5063550;28;47845;-79
2021/11/08 11:14:10;;;;;;;;;2.00;1.00;;;;;11.91;58.81;102090.22;5081759;28;45260;-79
2021/11/08 11:16:46;;;;;;;;;0.00;0.00;;;;;11.99;57.94;102103.47;5063709;28;45349;-79
2021/11/08 11:19:14;;;;;;;;;1.00;0.00;;;;;12.00;57.32;102090.47;5082329;28;45330;-79
2021/11/08 11:21:53;;;;;;;;;0.00;0.00;;;;;11.99;57.31;102098.25;5081877;28;46137;-80
2021/11/08 11:24:33;;;;;;;;;0.00;0.00;;;;;12.02;57.37;102104.44;5081766;28;45465;-80
2021/11/08 11:26:58;;;;;;;;;0.00;0.00;;;;;12.02;58.02;102093.09;5081203;28;45240;-79
2021/11/08 11:29:29;;;;;;;;;0.00;0.00;;;;;11.88;57.36;102062.34;5081627;28;45524;-80
2021/11/08 11:31:56;;;;;;;;;0.00;0.00;;;;;12.10;56.51;102096.81;5081188;28;46246;-80
2021/11/08 11:34:21;;;;;;;;;0.00;0.00;;;;;12.06;56.96;102079.28;5081069;28;45380;-79
2021/11/08 11:36:47;;;;;;;;;0.00;0.00;;;;;12.07;56.20;102078.47;5081604;28;45303;-81
2021/11/08 11:39:16;;;;;;;;;0.50;0.00;;;;;12.10;56.46;102077.69;5081529;28;45214;-80
2021/11/08 11:41:44;;;;;;;;;0.00;0.00;;;;;12.03;56.55;102051.38;5082795;28;45555;-80
2021/11/08 11:44:15;;;;;;;;;0.00;0.00;;;;;12.31;56.35;102084.25;5085271;28;45384;-80
2021/11/08 11:46:44;;;;;;;;;2.00;0.00;;;;;12.29;55.94;102079.00;5084987;28;45239;-80
2021/11/08 11:49:10;;;;;;;;;0.00;0.00;;;;;12.30;56.28;102078.13;5085126;28;45426;-79
2021/11/08 11:51:56;;;;;;;;;1.75;1.00;;;;;12.26;56.57;102073.69;5084796;28;46259;-79
2021/11/08 11:54:29;;;;;;;;;1.00;0.00;;;;;12.22;55.67;102064.03;5083390;28;45318;-80
2021/11/08 11:56:55;;;;;;;;;0.00;0.00;;;;;12.37;55.92;102069.59;5085814;28;45508;-80
2021/11/08 11:59:20;;;;;;;;;0.00;0.00;;;;;12.29;55.79;102050.25;5085782;28;45243;-80
2021/11/08 12:01:46;;;;;;;;;0.00;0.00;;;;;12.29;56.25;102050.25;5086565;28;46115;-80
2021/11/08 12:04:13;;;;;;;;;0.00;0.00;;;;;12.42;55.76;102069.69;5084966;28;45338;-80
2021/11/08 12:06:42;;;;;;;;;0.00;0.00;;;;;12.51;55.17;102069.00;5084302;28;45216;-81
2021/11/08 12:09:12;;;;;;;;;0.00;0.00;;;;;12.44;55.97;102041.91;5084706;28;45381;-79
2021/11/08 12:11:47;;;;;;;;;0.00;0.00;;;;;12.59;55.11;102059.59;5066280;28;46378;-79
2021/11/08 12:14:28;;;;;;;;;0.00;0.00;;;;;12.47;55.44;102030.63;5084647;28;45296;-79
2021/11/08 12:16:54;;;;;;;;;0.00;0.00;;;;;12.57;54.77;102050.88;5084525;28;45382;-80
2021/11/08 12:19:21;;;;;;;;;0.00;0.00;;;;;12.63;54.77;102053.63;5084457;28;45303;-80
2021/11/08 12:21:49;;;;;;;;;0.00;0.00;;;;;12.74;55.02;102052.97;5084372;28;45416;-79
2021/11/08 12:24:30;;;;;;;;;0.50;0.50;;;;;12.77;55.10;102030.38;5066242;28;45313;-80
2021/11/08 12:27:06;;;;;;;;;1.00;0.00;;;;;12.93;54.60;102042.00;5066424;28;45376;-80
2021/11/08 12:29:32;;;;;;;;;0.00;0.00;;;;;12.69;53.24;102012.78;5084369;28;45538;-79
2021/11/08 12:32:11;;;;;;;;;0.00;0.00;;;;;12.84;53.84;102038.34;5084202;28;45288;-81
2021/11/08 12:34:47;;;;;;;;;0.00;0.00;;;;;12.82;53.81;102035.69;5083570;28;45184;-80
2021/11/08 12:37:14;;;;;;;;;0.00;0.00;;;;;12.75;53.53;102036.44;5084546;28;45394;-80
2021/11/08 12:39:42;;;;;;;;;0.00;0.00;;;;;12.64;53.69;102030.97;5084240;28;45526;-79
2021/11/08 12:42:12;;;;;;;;;0.00;0.00;;;;;12.47;54.02;102017.56;5084108;28;46160;-80
2021/11/08 12:44:44;;;;;;;;;0.75;0.75;;;;;12.33;53.72;102015.53;5084053;28;45366;-79
2021/11/08 12:47:11;;;;;;;;;2.50;1.25;;;;;12.28;53.92;102011.94;5083719;28;45200;-79
2021/11/08 12:49:42;;;;;;;;;1.00;0.00;;;;;12.31;54.00;102027.66;5084576;28;45481;-79
2021/11/08 12:52:18;;;;;;;;;0.00;0.00;;;;;12.19;53.94;102014.34;5083771;27;46590;-80
2021/11/08 12:54:51;;;;;;;;;0.75;0.00;;;;;12.11;54.06;102012.47;5083289;28;45216;-79
2021/11/08 12:57:20;;;;;;;;;0.00;0.00;;;;;12.02;54.51;102004.38;5065525;28;45264;-79
2021/11/08 12:59:55;;;;;;;;;0.00;0.00;;;;;12.06;54.38;102018.38;5084623;28;45415;-78
2021/11/08 13:02:27;;;;;;;;;0.00;0.00;;;;;11.99;53.76;102013.03;5083898;28;45183;-79
2021/11/08 13:04:57;;;;;;;;;0.00;0.00;;;;;11.95;54.77;102007.69;5083250;28;45272;-79
2021/11/08 13:07:27;;;;;;;;;0.00;0.00;;;;;11.85;54.63;102007.47;5084181;28;45398;-79
2021/11/08 13:09:56;;;;;;;;;2.00;0.00;;;;;11.88;54.11;102012.75;5084312;28;45500;-79
2021/11/08 13:12:42;;;;;;;;;0.00;0.00;;;;;11.87;54.56;102005.78;5083740;28;46461;-78
2021/11/08 13:15:19;;;;;;;;;0.00;0.00;;;;;11.83;54.26;101992.63;5082895;28;45341;-80
2021/11/08 13:17:51;;;;;;;;;0.00;0.00;;;;;11.93;54.77;101999.81;5083875;28;45358;-81
2021/11/08 13:20:20;;;;;;;;;0.00;0.00;;;;;11.91;54.90;101994.56;5083809;28;45359;-80
2021/11/08 13:22:53;;;;;;;;;0.00;0.00;;;;;11.88;54.86;101991.00;5081852;28;47128;-80
2021/11/08 13:25:21;;;;;;;;;0.00;0.00;;;;;11.87;54.86;102008.41;5064843;28;45436;-79